createdAt,value
2023-04-21T00:01:48.551Z,13.57
2023-04-21T00:04:15.572Z,14.75
2023-04-21T00:06:42.642Z,13.57
2023-04-21T00:09:09.600Z,14.38
2023-04-21T00:11:36.384Z,11.90
2023-04-21T00:14:03.093Z,14.77
2023-04-21T00:16:29.760Z,14.65
2023-04-21T00:18:56.542Z,14.02
2023-04-21T00:21:23.236Z,16.40
2023-04-21T00:23:50.036Z,13.77
2023-04-21T00:26:16.788Z,13.57
2023-04-21T00:28:43.509Z,14.45
2023-04-21T00:31:10.280Z,14.07
2023-04-21T00:33:37.007Z,16.90
2023-04-21T00:36:03.917Z,16.40
2023-04-21T00:38:30.548Z,15.18
2023-04-21T00:40:57.240Z,17.17
2023-04-21T00:43:25.710Z,14.45
2023-04-21T00:45:52.507Z,14.73
2023-04-21T00:48:19.252Z,15.00
2023-04-21T00:50:46.490Z,14.50
2023-04-21T00:53:15.146Z,17.15
2023-04-21T00:55:42.108Z,15.20
2023-04-21T00:58:08.747Z,14.77
2023-04-21T01:00:36.430Z,14.77
2023-04-21T01:03:04.645Z,17.95
2023-04-21T01:05:31.755Z,15.50
2023-04-21T01:07:58.516Z,14.20
2023-04-21T01:10:25.198Z,15.65
2023-04-21T01:12:51.984Z,16.08
2023-04-21T01:15:18.817Z,15.40
2023-04-21T01:17:46.202Z,17.30
2023-04-21T01:20:18.820Z,15.32
2023-04-21T01:22:45.749Z,16.95
2023-04-21T01:25:12.442Z,15.32
2023-04-21T01:27:39.306Z,15.48
2023-04-21T01:30:07.373Z,17.08
2023-04-21T01:32:34.223Z,18.13
2023-04-21T01:35:01.466Z,15.68
2023-04-21T01:37:31.401Z,16.63
2023-04-21T01:40:00.108Z,19.80
2023-04-21T01:42:28.930Z,15.55
2023-04-21T01:44:56.973Z,16.27
2023-04-21T01:47:25.432Z,17.58
2023-04-21T01:49:52.919Z,18.05
2023-04-21T01:52:19.973Z,17.35
2023-04-21T01:54:46.740Z,15.65
2023-04-21T01:57:13.620Z,17.95
2023-04-21T01:59:40.399Z,17.52
2023-04-21T02:02:07.637Z,17.50
2023-04-21T02:04:34.753Z,16.98
2023-04-21T02:07:01.912Z,17.92
2023-04-21T02:09:28.662Z,18.60
2023-04-21T02:11:57.317Z,18.48
2023-04-21T02:14:25.943Z,14.55
2023-04-21T02:16:53.109Z,16.80
2023-04-21T02:19:20.461Z,15.32
2023-04-21T02:21:47.597Z,16.58
2023-04-21T02:24:14.333Z,16.65
2023-04-21T02:26:41.074Z,14.63
2023-04-21T02:29:07.750Z,16.45
2023-04-21T02:31:40.485Z,16.77
2023-04-21T02:34:13.292Z,15.93
2023-04-21T02:36:45.858Z,16.60
2023-04-21T02:39:12.738Z,18.63
2023-04-21T02:41:40.462Z,15.95
2023-04-21T02:44:07.199Z,15.75
2023-04-21T02:46:33.954Z,14.80
2023-04-21T02:49:00.600Z,15.80
2023-04-21T02:51:27.303Z,15.65
2023-04-21T02:53:53.945Z,16.10
2023-04-21T02:56:20.571Z,15.57
2023-04-21T02:58:47.277Z,15.68
2023-04-21T03:01:14.241Z,16.25
2023-04-21T03:03:41.251Z,16.42
2023-04-21T03:06:08.381Z,18.35
2023-04-21T03:08:35.121Z,15.25
2023-04-21T03:11:01.830Z,17.05
2023-04-21T03:13:28.628Z,14.23
2023-04-21T03:15:55.824Z,17.83
2023-04-21T03:18:22.574Z,15.95
2023-04-21T03:20:49.551Z,17.15
2023-04-21T03:23:17.036Z,17.67
2023-04-21T03:25:43.807Z,15.95
2023-04-21T03:28:10.958Z,15.05
2023-04-21T03:30:37.678Z,16.70
2023-04-21T03:33:04.967Z,17.00
2023-04-21T03:35:31.795Z,18.10
2023-04-21T03:37:58.479Z,20.70
2023-04-21T03:40:25.185Z,18.33
2023-04-21T03:42:51.843Z,18.15
2023-04-21T03:45:22.469Z,19.73
2023-04-21T03:47:49.540Z,20.77
2023-04-21T03:50:16.280Z,17.52
2023-04-21T03:52:43.041Z,17.13
2023-04-21T03:55:11.497Z,17.77
2023-04-21T03:57:41.091Z,20.63
2023-04-21T04:00:10.384Z,17.30
2023-04-21T04:02:37.795Z,17.63
2023-04-21T04:05:05.398Z,18.63
2023-04-21T04:07:32.772Z,17.90
2023-04-21T04:09:59.573Z,17.25
2023-04-21T04:12:26.309Z,15.30
2023-04-21T04:14:53.019Z,17.80
2023-04-21T04:17:19.700Z,18.60
2023-04-21T04:19:46.382Z,15.77
2023-04-21T04:22:13.107Z,13.98
2023-04-21T04:24:39.830Z,14.98
2023-04-21T04:27:07.111Z,17.83
2023-04-21T04:29:33.820Z,15.00
2023-04-21T04:32:01.776Z,15.90
2023-04-21T04:34:28.492Z,16.75
2023-04-21T04:36:57.277Z,17.13
2023-04-21T04:39:25.606Z,20.63
2023-04-21T04:41:52.660Z,13.45
2023-04-21T04:44:19.701Z,17.25
2023-04-21T04:46:46.968Z,18.17
2023-04-21T04:49:13.690Z,19.95
2023-04-21T04:51:40.425Z,18.48
2023-04-21T04:54:07.288Z,23.73
2023-04-21T04:56:34.070Z,17.90
2023-04-21T04:59:01.231Z,20.55
2023-04-21T05:01:30.774Z,15.68
2023-04-21T05:03:57.923Z,16.10
2023-04-21T05:06:25.262Z,15.55
2023-04-21T05:08:51.986Z,17.30
2023-04-21T05:11:18.676Z,21.38
2023-04-21T05:13:45.689Z,18.15
2023-04-21T05:16:12.571Z,22.05
2023-04-21T05:18:39.426Z,21.17
2023-04-21T05:21:06.213Z,24.83
2023-04-21T05:23:32.925Z,22.75
2023-04-21T05:26:01.958Z,22.75
2023-04-21T05:28:31.717Z,19.10
2023-04-21T05:30:58.486Z,22.52
2023-04-21T05:33:26.717Z,21.13
2023-04-21T05:35:53.594Z,22.83
2023-04-21T05:38:20.291Z,28.33
2023-04-21T05:40:55.323Z,22.25
2023-04-21T05:43:23.122Z,17.67
2023-04-21T05:45:49.858Z,18.98
2023-04-21T05:48:16.628Z,23.70
2023-04-21T05:50:43.387Z,17.83
2023-04-21T05:53:10.188Z,19.05
2023-04-21T05:55:37.570Z,22.13
2023-04-21T05:58:24.200Z,22.77
2023-04-21T06:00:51.267Z,21.98
2023-04-21T06:03:18.180Z,19.98
2023-04-21T06:05:45.046Z,21.30
2023-04-21T06:08:11.818Z,19.50
2023-04-21T06:10:38.585Z,19.27
2023-04-21T06:13:05.245Z,22.38
2023-04-21T06:15:31.875Z,18.25
2023-04-21T06:18:01.452Z,20.98
2023-04-21T06:20:28.500Z,19.25
2023-04-21T06:22:55.450Z,16.80
2023-04-21T06:25:22.261Z,18.38
2023-04-21T06:27:48.988Z,16.83
2023-04-21T06:30:15.748Z,18.30
2023-04-21T06:32:42.488Z,19.15
2023-04-21T06:35:09.553Z,17.23
2023-04-21T06:37:36.261Z,17.58
2023-04-21T06:40:03.497Z,16.88
2023-04-21T06:42:30.222Z,16.40
2023-04-21T06:44:56.919Z,16.38
2023-04-21T06:47:23.718Z,18.48
2023-04-21T06:49:50.497Z,18.15
2023-04-21T06:52:18.262Z,15.80
2023-04-21T06:54:46.639Z,15.90
2023-04-21T06:57:15.135Z,17.00
2023-04-21T06:59:42.655Z,15.30
2023-04-21T07:02:09.575Z,17.35
2023-04-21T07:04:36.764Z,16.95
2023-04-21T07:07:03.607Z,17.35
2023-04-21T07:09:30.786Z,14.48
2023-04-21T07:11:57.455Z,15.88
2023-04-21T07:14:24.232Z,19.73
2023-04-21T07:16:50.856Z,17.73
2023-04-21T07:19:17.938Z,19.70
2023-04-21T07:21:44.709Z,14.60
2023-04-21T07:24:11.339Z,15.55
2023-04-21T07:26:37.990Z,14.50
2023-04-21T07:29:04.655Z,15.05
2023-04-21T07:31:31.362Z,19.27
2023-04-21T07:33:58.033Z,15.85
2023-04-21T07:36:26.125Z,14.98
2023-04-21T07:38:52.735Z,12.73
2023-04-21T07:41:19.671Z,16.08
2023-04-21T07:43:46.554Z,15.93
2023-04-21T07:46:13.571Z,18.35
2023-04-21T07:48:40.841Z,17.70
2023-04-21T07:51:07.537Z,13.38
2023-04-21T07:53:35.101Z,14.50
2023-04-21T07:56:01.739Z,14.85
2023-04-21T07:58:28.541Z,14.38
2023-04-21T08:00:55.308Z,14.38
2023-04-21T08:03:25.669Z,13.18
2023-04-21T08:05:52.595Z,11.32
2023-04-21T08:08:21.497Z,13.10
2023-04-21T08:10:48.286Z,13.02
2023-04-21T08:13:15.307Z,12.15
2023-04-21T08:15:41.966Z,13.43
2023-04-21T08:18:08.864Z,15.25
2023-04-21T08:20:35.860Z,10.35
2023-04-21T08:23:02.793Z,10.73
2023-04-21T08:25:29.780Z,11.85
2023-04-21T08:27:56.658Z,11.07
2023-04-21T08:30:23.481Z,13.43
2023-04-21T08:32:50.433Z,13.07
2023-04-21T08:35:17.150Z,11.23
2023-04-21T08:37:43.981Z,10.48
2023-04-21T08:40:11.788Z,13.38
2023-04-21T08:42:39.191Z,12.45
2023-04-21T08:45:06.496Z,11.23
2023-04-21T08:47:34.022Z,10.98
2023-04-21T08:50:00.793Z,9.70
2023-04-21T08:52:27.692Z,11.10
2023-04-21T08:54:55.531Z,10.25
2023-04-21T08:57:22.489Z,12.32
2023-04-21T08:59:49.268Z,11.93
2023-04-21T09:02:17.915Z,10.63
2023-04-21T09:04:47.709Z,12.90
2023-04-21T09:07:30.835Z,9.50
2023-04-21T09:10:00.246Z,8.40
2023-04-21T09:12:27.795Z,7.97
2023-04-21T09:14:55.203Z,5.43
2023-04-21T09:17:28.748Z,6.05
2023-04-21T09:19:55.633Z,5.05
2023-04-21T09:22:27.551Z,6.47
2023-04-21T09:24:59.949Z,6.03
2023-04-21T09:27:27.078Z,7.00
2023-04-21T09:29:53.891Z,8.45
2023-04-21T09:32:21.165Z,7.55
2023-04-21T09:34:49.442Z,5.40
2023-04-21T09:37:18.777Z,5.80
2023-04-21T09:40:03.523Z,5.28
2023-04-21T09:42:35.049Z,6.05
2023-04-21T09:45:23.283Z,7.97
2023-04-21T09:47:52.256Z,5.93
2023-04-21T09:50:41.813Z,6.43
2023-04-21T09:53:13.969Z,6.68
2023-04-21T09:55:42.985Z,6.78
2023-04-21T09:58:12.583Z,8.00
2023-04-21T10:00:40.921Z,6.47
2023-04-21T10:03:11.425Z,8.10
2023-04-21T10:05:41.257Z,7.07
2023-04-21T10:08:11.329Z,7.40
2023-04-21T10:10:38.706Z,9.73
2023-04-21T10:13:05.675Z,10.60
2023-04-21T10:15:33.564Z,8.23
2023-04-21T10:18:21.874Z,7.47
2023-04-21T10:20:54.578Z,6.13
2023-04-21T10:23:41.932Z,7.07
2023-04-21T10:26:27.065Z,6.15
2023-04-21T10:28:57.313Z,5.75
2023-04-21T10:31:28.218Z,8.20
2023-04-21T10:34:12.009Z,7.60
2023-04-21T10:36:46.723Z,7.63
2023-04-21T10:39:31.729Z,5.78
2023-04-21T10:42:20.751Z,5.57
2023-04-21T10:45:03.712Z,6.38
2023-04-21T10:47:37.023Z,4.70
2023-04-21T10:50:19.594Z,4.32
2023-04-21T10:52:53.846Z,4.05
2023-04-21T10:55:21.953Z,4.28
2023-04-21T10:57:49.185Z,4.25
2023-04-21T11:00:18.619Z,5.90
2023-04-21T11:02:54.402Z,3.85
2023-04-21T11:05:27.913Z,3.97
2023-04-21T11:08:03.832Z,5.78
2023-04-21T11:10:40.897Z,4.70
2023-04-21T11:13:08.085Z,4.10
2023-04-21T11:15:34.694Z,4.72
2023-04-21T11:18:01.377Z,3.67
2023-04-21T11:20:28.111Z,4.00
2023-04-21T11:22:56.837Z,4.28
2023-04-21T11:25:23.538Z,5.63
2023-04-21T11:28:00.015Z,4.28
2023-04-21T11:30:34.727Z,3.97
2023-04-21T11:33:01.872Z,4.03
2023-04-21T11:35:28.573Z,4.28
2023-04-21T11:37:55.998Z,3.75
2023-04-21T11:40:22.688Z,3.05
2023-04-21T11:42:50.250Z,5.18
2023-04-21T11:45:21.943Z,3.00
2023-04-21T11:47:49.652Z,2.97
2023-04-21T11:50:32.098Z,3.03
2023-04-21T11:52:59.059Z,3.47
2023-04-21T11:55:26.014Z,3.88
2023-04-21T11:57:52.948Z,3.42
2023-04-21T12:00:20.222Z,3.05
2023-04-21T12:02:55.968Z,4.50
2023-04-21T12:05:24.111Z,4.55
2023-04-21T12:07:52.291Z,2.90
2023-04-21T12:10:21.325Z,3.90
2023-04-21T12:12:48.698Z,3.10
2023-04-21T12:15:22.652Z,2.25
2023-04-21T12:17:50.560Z,3.78
2023-04-21T12:20:22.434Z,3.67
2023-04-21T12:22:50.020Z,2.55
2023-04-21T12:25:17.076Z,2.85
2023-04-21T12:27:52.483Z,3.70
2023-04-21T12:30:20.411Z,2.08
2023-04-21T12:32:48.177Z,2.17
2023-04-21T12:35:15.175Z,1.80
2023-04-21T12:37:41.934Z,1.88
2023-04-21T12:40:09.120Z,1.90
2023-04-21T12:42:37.783Z,1.65
2023-04-21T12:45:05.948Z,2.00
2023-04-21T12:47:32.800Z,1.65
2023-04-21T12:49:59.483Z,1.77
2023-04-21T12:52:26.860Z,1.52
2023-04-21T12:54:53.519Z,2.20
2023-04-21T12:57:21.265Z,1.80
2023-04-21T12:59:48.355Z,2.00
2023-04-21T13:02:15.558Z,2.20
2023-04-21T13:04:42.685Z,1.73
2023-04-21T13:07:09.577Z,1.80
2023-04-21T13:09:36.331Z,1.95
2023-04-21T13:12:03.247Z,1.80
2023-04-21T13:14:30.170Z,1.70
2023-04-21T13:16:57.140Z,1.70
2023-04-21T13:19:24.025Z,1.98
2023-04-21T13:21:53.478Z,1.75
2023-04-21T13:24:21.092Z,1.83
2023-04-21T13:26:47.813Z,1.60
2023-04-21T13:29:14.557Z,1.67
2023-04-21T13:31:41.374Z,1.73
2023-04-21T13:34:08.237Z,1.77
2023-04-21T13:36:35.251Z,2.53
2023-04-21T13:39:02.210Z,1.55
2023-04-21T13:41:28.997Z,1.88
2023-04-21T13:43:56.025Z,3.55
2023-04-21T13:46:23.038Z,1.70
2023-04-21T13:48:51.643Z,1.25
2023-04-21T13:51:19.269Z,1.70
2023-04-21T13:53:46.154Z,1.80
2023-04-21T13:56:13.915Z,1.65
2023-04-21T13:58:41.559Z,1.50
2023-04-21T14:01:08.464Z,1.60
2023-04-21T14:03:35.997Z,1.58
2023-04-21T14:06:03.016Z,2.03
2023-04-21T14:08:29.818Z,3.00
2023-04-21T14:10:57.470Z,1.60
2023-04-21T14:13:36.418Z,1.63
2023-04-21T14:16:09.264Z,1.42
2023-04-21T14:18:37.790Z,1.42
2023-04-21T14:21:04.700Z,2.25
2023-04-21T14:23:31.387Z,1.50
2023-04-21T14:25:58.091Z,1.75
2023-04-21T14:28:24.805Z,1.52
2023-04-21T14:30:51.490Z,1.60
2023-04-21T14:33:18.274Z,1.65
2023-04-21T14:35:45.090Z,2.20
2023-04-21T14:38:11.755Z,1.63
2023-04-21T14:40:38.443Z,1.23
2023-04-21T14:43:05.148Z,1.30
2023-04-21T14:45:32.785Z,1.70
2023-04-21T14:47:59.702Z,1.50
2023-04-21T14:50:26.426Z,2.75
2023-04-21T14:52:53.167Z,2.55
2023-04-21T14:55:19.922Z,1.60
2023-04-21T14:57:47.021Z,1.13
2023-04-21T15:00:14.248Z,1.25
2023-04-21T15:02:41.384Z,1.20
2023-04-21T15:05:09.417Z,2.17
2023-04-21T15:07:36.327Z,1.50
2023-04-21T15:10:03.535Z,1.42
2023-04-21T15:12:30.360Z,1.48
2023-04-21T15:14:57.119Z,1.50
2023-04-21T15:17:24.099Z,1.52
2023-04-21T15:19:51.070Z,1.63
2023-04-21T15:22:17.876Z,1.30
2023-04-21T15:24:45.411Z,1.60
2023-04-21T15:27:12.115Z,2.17
2023-04-21T15:29:38.846Z,1.58
2023-04-21T15:32:05.610Z,1.55
2023-04-21T15:34:32.176Z,1.50
2023-04-21T15:36:58.900Z,1.60
2023-04-21T15:39:25.633Z,1.50
2023-04-21T15:41:53.673Z,1.40
2023-04-21T15:44:20.567Z,2.60
2023-04-21T15:46:47.298Z,1.25
2023-04-21T15:49:14.153Z,1.40
2023-04-21T15:51:40.896Z,1.60
2023-04-21T15:54:07.688Z,1.60
2023-04-21T15:56:34.399Z,1.50
2023-04-21T15:59:01.457Z,1.58
2023-04-21T16:01:28.520Z,1.50
2023-04-21T16:03:55.624Z,3.35
2023-04-21T16:06:24.053Z,2.35
2023-04-21T16:08:51.087Z,1.80
2023-04-21T16:11:18.002Z,2.65
2023-04-21T16:13:45.258Z,1.90
2023-04-21T16:16:12.078Z,1.42
2023-04-21T16:18:38.963Z,1.60
2023-04-21T16:21:05.874Z,1.75
2023-04-21T16:23:33.289Z,1.65
2023-04-21T16:26:01.868Z,1.55
2023-04-21T16:28:28.630Z,1.95
2023-04-21T16:30:55.351Z,2.03
2023-04-21T16:33:22.221Z,1.70
2023-04-21T16:35:48.996Z,1.85
2023-04-21T16:38:15.728Z,1.35
2023-04-21T16:40:42.503Z,1.52
2023-04-21T16:43:09.346Z,1.40
2023-04-21T16:45:38.198Z,1.48
2023-04-21T16:48:05.218Z,1.52
2023-04-21T16:50:32.012Z,2.17
2023-04-21T16:52:58.646Z,1.70
2023-04-21T16:55:25.313Z,2.25
2023-04-21T16:57:52.303Z,2.25
2023-04-21T17:00:19.325Z,1.58
2023-04-21T17:02:46.145Z,1.83
2023-04-21T17:05:13.141Z,1.83
2023-04-21T17:07:39.858Z,1.75
2023-04-21T17:10:07.397Z,3.17
2023-04-21T17:12:34.111Z,1.60
2023-04-21T17:15:00.866Z,1.40
2023-04-21T17:17:31.245Z,3.58
2023-04-21T17:19:57.934Z,1.55
2023-04-21T17:22:24.609Z,3.42
2023-04-21T17:24:53.234Z,2.15
2023-04-21T17:27:23.526Z,1.95
2023-04-21T17:29:51.087Z,1.77
2023-04-21T17:32:18.026Z,3.30
2023-04-21T17:34:44.978Z,2.35
2023-04-21T17:37:11.910Z,2.10
2023-04-21T17:39:38.700Z,1.65
2023-04-21T17:42:05.609Z,1.90
2023-04-21T17:44:32.355Z,2.15
2023-04-21T17:46:59.191Z,2.45
2023-04-21T17:49:26.409Z,1.73
2023-04-21T17:51:53.227Z,1.90
2023-04-21T17:54:20.193Z,3.60
2023-04-21T17:56:46.957Z,2.38
2023-04-21T17:59:13.891Z,4.70
2023-04-21T18:01:40.767Z,1.88
2023-04-21T18:04:07.956Z,2.20
2023-04-21T18:06:35.868Z,4.00
2023-04-21T18:09:04.497Z,2.92
2023-04-21T18:11:31.598Z,2.40
2023-04-21T18:13:58.485Z,1.80
2023-04-21T18:16:25.524Z,3.28
2023-04-21T18:18:52.310Z,2.10
2023-04-21T18:21:19.050Z,2.28
2023-04-21T18:23:45.793Z,2.80
2023-04-21T18:26:12.447Z,3.05
2023-04-21T18:28:39.176Z,3.10
2023-04-21T18:31:05.929Z,2.80
2023-04-21T18:33:32.883Z,3.28
2023-04-21T18:35:59.546Z,2.95
2023-04-21T18:38:26.298Z,2.00
2023-04-21T18:40:52.936Z,2.85
2023-04-21T18:43:19.666Z,1.92
2023-04-21T18:45:46.643Z,1.73
2023-04-21T18:48:13.385Z,1.88
2023-04-21T18:50:40.923Z,2.30
2023-04-21T18:53:08.440Z,3.35
2023-04-21T18:55:36.218Z,3.28
2023-04-21T18:58:03.483Z,2.83
2023-04-21T19:00:32.207Z,2.50
2023-04-21T19:03:01.462Z,7.35
2023-04-21T19:05:30.536Z,6.07
2023-04-21T19:07:58.064Z,3.85
2023-04-21T19:10:24.782Z,4.68
2023-04-21T19:12:51.512Z,4.95
2023-04-21T19:15:18.442Z,3.67
2023-04-21T19:17:45.375Z,3.30
2023-04-21T19:20:12.400Z,2.88
2023-04-21T19:22:39.097Z,4.32
2023-04-21T19:25:07.116Z,3.35
2023-04-21T19:27:34.052Z,4.10
2023-04-21T19:30:01.018Z,3.72
2023-04-21T19:32:27.928Z,4.32
2023-04-21T19:34:54.883Z,2.60
2023-04-21T19:37:21.787Z,3.63
2023-04-21T19:39:48.465Z,2.75
2023-04-21T19:42:15.350Z,4.35
2023-04-21T19:44:41.988Z,2.88
2023-04-21T19:47:08.753Z,3.05
2023-04-21T19:49:35.642Z,2.60
2023-04-21T19:52:02.306Z,3.67
2023-04-21T19:54:28.964Z,2.85
2023-04-21T19:56:55.723Z,3.00
2023-04-21T19:59:22.453Z,3.53
2023-04-21T20:01:49.217Z,5.18
2023-04-21T20:04:16.514Z,3.20
2023-04-21T20:06:43.999Z,2.90
2023-04-21T20:09:10.975Z,3.20
2023-04-21T20:11:37.758Z,2.78
2023-04-21T20:14:04.882Z,2.65
2023-04-21T20:16:32.772Z,5.13
2023-04-21T20:18:59.863Z,2.70
2023-04-21T20:21:27.361Z,2.78
2023-04-21T20:23:54.127Z,2.38
2023-04-21T20:26:20.855Z,3.13
2023-04-21T20:28:47.748Z,2.55
2023-04-21T20:31:14.751Z,2.95
2023-04-21T20:33:41.627Z,3.40
2023-04-21T20:36:08.405Z,6.97
2023-04-21T20:38:35.393Z,4.80
2023-04-21T20:41:03.203Z,3.00
2023-04-21T20:43:32.941Z,5.53
2023-04-21T20:46:01.469Z,3.55
2023-04-21T20:48:28.175Z,3.58
2023-04-21T20:50:55.343Z,4.60
2023-04-21T20:53:22.630Z,5.35
2023-04-21T20:55:49.534Z,3.55
2023-04-21T20:58:16.249Z,4.88
2023-04-21T21:00:42.968Z,5.30
2023-04-21T21:03:11.493Z,3.40
2023-04-21T21:05:38.584Z,6.70
2023-04-21T21:08:06.066Z,3.47
2023-04-21T21:10:32.824Z,5.20
2023-04-21T21:12:59.673Z,4.68
2023-04-21T21:15:27.797Z,6.00
2023-04-21T21:17:54.527Z,4.45
2023-04-21T21:20:21.348Z,6.13
2023-04-21T21:22:48.092Z,6.57
2023-04-21T21:25:14.888Z,5.78
2023-04-21T21:27:41.697Z,5.60
2023-04-21T21:30:08.951Z,4.97
2023-04-21T21:32:35.877Z,4.78
2023-04-21T21:35:02.928Z,5.38
2023-04-21T21:37:30.175Z,4.57
2023-04-21T21:39:56.830Z,4.82
2023-04-21T21:42:23.616Z,7.05
2023-04-21T21:44:50.315Z,6.28
2023-04-21T21:47:18.126Z,8.63
2023-04-21T21:49:44.795Z,8.68
2023-04-21T21:52:11.568Z,8.48
2023-04-21T21:54:38.497Z,8.30
2023-04-21T21:57:05.276Z,5.32
2023-04-21T21:59:32.078Z,5.00
2023-04-21T22:01:58.839Z,7.45
2023-04-21T22:04:25.568Z,5.55
2023-04-21T22:06:52.288Z,5.72
2023-04-21T22:09:19.144Z,8.20
2023-04-21T22:11:46.163Z,7.57
2023-04-21T22:14:22.572Z,5.07
2023-04-21T22:16:50.460Z,6.90
2023-04-21T22:19:18.971Z,5.47
2023-04-21T22:21:46.076Z,8.30
2023-04-21T22:24:12.920Z,5.68
2023-04-21T22:26:39.739Z,5.82
2023-04-21T22:29:07.007Z,7.70
2023-04-21T22:31:33.913Z,6.13
2023-04-21T22:34:00.705Z,5.68
2023-04-21T22:36:27.508Z,5.47
2023-04-21T22:38:54.204Z,5.88
2023-04-21T22:41:21.131Z,6.30
2023-04-21T22:43:48.209Z,7.45
2023-04-21T22:46:15.007Z,7.60
2023-04-21T22:48:41.992Z,7.40
2023-04-21T22:51:08.737Z,8.68
2023-04-21T22:53:35.558Z,7.20
2023-04-21T22:56:02.312Z,7.63
2023-04-21T22:58:29.086Z,8.00
2023-04-21T23:00:55.855Z,5.55
2023-04-21T23:03:23.906Z,6.07
2023-04-21T23:05:50.740Z,7.05
2023-04-21T23:08:17.464Z,6.90
2023-04-21T23:10:44.239Z,4.93
2023-04-21T23:13:10.992Z,5.55
2023-04-21T23:15:42.298Z,5.10
2023-04-21T23:18:09.070Z,9.32
2023-04-21T23:20:35.893Z,5.18
2023-04-21T23:23:02.619Z,6.80
2023-04-21T23:25:29.363Z,5.32
2023-04-21T23:27:57.126Z,5.07
2023-04-21T23:30:23.874Z,5.47
2023-04-21T23:32:50.720Z,5.43
2023-04-21T23:35:17.681Z,7.25
2023-04-21T23:37:44.470Z,5.75
2023-04-21T23:40:12.524Z,5.70
2023-04-21T23:42:39.503Z,6.78
2023-04-21T23:45:06.924Z,6.30
2023-04-21T23:47:33.891Z,5.85
2023-04-21T23:50:00.982Z,5.75
2023-04-21T23:52:27.855Z,5.35
2023-04-21T23:54:54.561Z,7.30
2023-04-21T23:57:21.364Z,6.78
2023-04-21T23:59:48.069Z,5.90
